Kilkenny, Ireland

7:37 AM IST on April 27, 2017 (GMT +0100)
Kilkenny | | Change Station

Elev 160 ft 52.66 °N, 7.25 °W | Updated 15 seconds ago

Partly Cloudy
Partly Cloudy
40.5 °F
Feels Like 40 °F
N
0.0
Wind Variable Wind from West
Gusts 0.0 mph

Today
High -- | Low -- °F
--% Chance of Precip.
Yesterday
High -- | Low -- °F
Precip. -- in
Pressure 30.18 in
Visibility 6.2 miles
Clouds Few 500 ft
Scattered Clouds 4000 ft
Mostly Cloudy 12000 ft
Windchill 40 °F
Dew Point 34 °F
Humidity 86%
Rainfall 0.00 in
Snow Depth Not available.
6:05 AM 8:49 PM
New Moon, 1% visible
METAR EIME 270600Z 25006KT 9999 FEW005 SCT040 BKN120 03/03 Q1022
Pressure 30.18 in
Visibility 6.2 miles
Clouds Few 500 ft
Scattered Clouds 4000 ft
Mostly Cloudy 12000 ft
Windchill 40 °F
Dew Point 34 °F
Humidity 86%
Rainfall 0.00 in
Snow Depth Not available.
6:05 AM 8:49 PM
New Moon, 1% visible
METAR EIME 270600Z 25006KT 9999 FEW005 SCT040 BKN120 03/03 Q1022

Get Severe Weather Alerts

Thanks for signing up!

Be on the lookout for a verification email in your inbox.

You'll start receiving the daily forecast at 8 AM.

×

10-Day Weather Forecast

×

Almanac

Astronomy

Apr. 27, 2017 Rise Set
Actual Time
Civil Twilight
Nautical Twilight
Astronomical Twilight
Moon
Length of Visible Light
Length of Day
Tomorrow will be .
, % of the Moon is Illuminated

Today's Extremes

Country Highs Country Lows

Community

WunderPhotos

WunderBlog® & News

Nearby

Air Quality

  Air Quality AQ Index Pollutant
Not available.

Snow Depth

Station Depth Elevation

Earthquake Activity

City Distance Mag. Time & Date
Minimum magnitude displayed is 2.5.

Coastal Water Temperatures

Place Temperature

Stations

Nearby Weather Stations

Station Location Temp. Windchill Dew Point Humidity Wind Precip. Elev Updated Type